Creek Data

    Home     View Charts     View Raw Data     Messages

ID Distance Battery Voltage Battery Current Internal Temp Internal Humidity External Temp Solar Input rssi snr Time Stamp Record
34056 15.0 4.05 31 63 41 58 4.5 -77 7 03/04/2025 05:30 PM 15775
34055 15.0 4.02 0 64 42 58 4.5 -77 8 03/04/2025 05:15 PM 15774
34054 15.1 4.00 5 68 39 60 5.1 -75 8 03/04/2025 05:00 PM 15773
34053 15.1 4.00 5 67 40 61 5.1 -76 8 03/04/2025 04:45 PM 15772
34052 15.0 4.00 5 67 42 60 5.1 -77 7 03/04/2025 04:30 PM 15771
34051 15.2 4.00 0 80 36 63 5.1 -79 7 03/04/2025 03:45 PM 15768
34050 15.2 4.01 5 81 35 64 5.1 -79 8 03/04/2025 03:30 PM 15767
34049 15.2 4.01 5 81 34 66 5.1 -80 6 03/04/2025 03:15 PM 15766
34048 15.2 4.00 0 79 35 67 5.1 -80 7 03/04/2025 03:00 PM 15765
34047 15.2 4.00 5 78 34 60 5.1 -79 8 03/04/2025 02:45 PM 15764
34046 15.2 4.06 5 76 35 64 5.1 -80 7 03/04/2025 02:30 PM 15763
34045 15.2 4.00 0 75 35 63 5.1 -80 7 03/04/2025 02:15 PM 15762
34044 15.1 4.00 5 71 36 62 5.1 -77 8 03/04/2025 02:00 PM 15761
34043 15.2 4.02 5 69 36 61 5.1 -79 8 03/04/2025 01:30 PM 15759
34042 15.1 4.00 0 68 37 60 5.1 -78 8 03/04/2025 01:15 PM 15758
34041 15.1 4.00 0 67 37 60 5.1 -80 8 03/04/2025 01:00 PM 15757
34040 15.1 4.11 5 66 36 60 5.1 -80 5 03/04/2025 12:45 PM 15756
34039 15.1 4.00 5 65 36 60 5.1 -77 8 03/04/2025 12:30 PM 15755
34038 15.1 4.00 0 62 38 59 5.1 -79 8 03/04/2025 12:15 PM 15754
34037 15.0 4.00 5 60 38 58 5.1 -79 8 03/04/2025 12:00 PM 15753
34036 15.1 4.00 0 60 38 57 5.1 -78 6 03/04/2025 11:45 AM 15752
34035 15.1 4.00 5 59 38 57 5.1 -79 8 03/04/2025 11:30 AM 15751
34034 15.1 4.00 0 59 37 57 5.1 -76 8 03/04/2025 11:15 AM 15750
34033 15.1 4.00 5 58 37 57 5.1 -76 7 03/04/2025 11:00 AM 15749
34032 15.0 4.00 5 58 37 56 5.1 -75 7 03/04/2025 10:45 AM 15748